Glacier Park International Airport Kalispell US
ICAO: KGPI
IATA: FCA
Category: Medium
Scheduled Services: Yes

Elevation: 2977 ft
TransAlt. 18000 ft.

Airport Communications:
ATIS:132.625
SALT LAKE CITY CNTR:133.4
CTAF:124.55
GND:121.6
GREAT FALLS RDO:122.5
TWR:124.55
UNICOM:122.95

KGPI Zoom In..

If you have problems with the map follow the link
https://www.worldairports.se/pages/airport.php?
ICAO=KGPI

Runways:

(A) RW 02 length 9007 ft width 150 ft
ILS 111.50 / hdg 20

(B) RW 12 length 3504 ft width 75 ft
---- / hdg 121

(C) RW 20 length 9007 ft width 150 ft
---- / hdg 200

(D) RW 30 length 3504 ft width 75 ft
---- / hdg 301

Location; KGPI
Day. 19 / Time. 17.55 Zulu
* Altimeter: 30.45
* Temperature: -02° c. -28.4°f.
* Wind from: 000° Speed 00 kn.
Dewpoint: -03° c.
Visibility: 3 Statute Miles.
Clouds: Overcast 5000 ft.
Conditions: Mist.

KGPI 191755Z 00000KT 3SM BR OVC050 M02/M03 A3045 RMK AO2 VIS 1 3/4 NE SLP345 T10171033 11011 21044 55003


Wind - Calm.

 
 
jpsmedia worldairports.se 2020   terms of use